KSBN/SBN METAR and TAF weather

Enter ICAO airport designator
Station Type Date Time Source
KSBN METAR 2020/12/06 00:54 UTC NOAA

KSBN 060054Z 00000KT 10SM OVC025 02/M04 A3014 RMK AO2 SLP213 T00171044


Station Type Date Time Source
KSBN Decoded METAR 2020/12/06 00:54 UTC NOAA

SOUTH BEND REGIONAL AIRPORT, IN, United States (KSBN) 41-42N 086-19W 237M
Dec 05, 2020 - 07:54 PM EST / 2020.12.06 0054 UTC
Wind: Calm:0
Visibility: 10 mile(s):0
Sky conditions: overcast
Temperature: 35.1 F (1.7 C)
Dew Point: 24.1 F (-4.4 C)
Relative Humidity: 63%
Pressure (altimeter): 30.14 in. Hg (1020 hPa)
ob: KSBN 060054Z 00000KT 10SM OVC025 02/M04 A3014 RMK AO2 SLP213 T00171044
cycle: 1

Station Type Date Time Source
KSBN TAF 2020/12/05 18:22 UTC NOAA

TAF KSBN 051720Z 0518/0618 36008KT P6SM OVC025
FM060300 00000KT P6SM BKN025

Example: see airport list